Beijing, China
Current Conditions -  °F | °C
As of 4:00 AM on Monday 26 Jan 2015 (Local Time) from ZBAA Reporting Station
Haze Haze  
Wind Chill: 13°   Ceiling: Unl
Heat Index: 19°   Visibility: 1mi
Dew Point: 19°   Wind: 4mph
Humidity: 100%   Direction: 360°N
Pressure: 30.21"   Gusts: NA
Location:  39.93°N, 116.4°E
Report Text: ZBAA 252000Z 36002MPS 1700 R01/1100N R36R/1500N R36L/1400NBRNSC M07/M07 Q1023 BECMG TL2140 1400 BR
Loading
Personal Weather Stations






























Interactive Weather Map New forecast layout! Learn more

10-Day Weather Forecast

Advertisements
Track Severe Weather on mobile